1XA4 weather

Mikeska Field
Brookshire, Texas, United States

Public forecast

Using degrees Fahrenheit for public forecast. Weather courtesy of forecast.io.

METAR (pilot weather report)

Closest report is Houston Executive Airport, 6.8 nm (12.7 km) SE. Retrieved 2019/07/20 02:35 UTC (8 minutes ago):

KTME 200235Z AUTO 17009KT 10SM OVC015 29/24 A2997 RMK AO2

TAF (pilot weather forecast)

Forecast is more than 12 hours old.

Closest forecast is Sugar Land Regional Airport, 23.6 nm (43.7 km) SE. Retrieved 2019/07/19 00:39 UTC (1 day ago):

TAF KSGR 192336Z 2000/2024 16012KT P6SM FEW050 SCT250 FM200400 16005KT P6SM FEW250 FM201100 VRB03KT P6SM SCT015 FM201600 17010KT P6SM SCT030